»·PEaware :: UAL257 KSFO-KLAX

UAL257 :: KSFO-KLAX

FLIGHT INFORMATION

Flight Status: Arrived
Operator:
United Airlines
More flights by this operator :: More flights under this callsign
Pilot: Alfredo R. (12181)
Aircraft: BOEING 737-800
(B738)
More flights by this aircraft type
Origin: KSFO San Francisco Intl
United States
Destination: KLAX Los Angeles Intl
United States
More flights between these airports :: More routes between these airports
Route: +SSTIK4 EBAYE BURGL IRNMN2
File this flight plan on PilotEdge
Remarks:
Altitude:
(Current/Filed)
37,000ft
Speed:
(Current/Filed)
425kts
Departed: 29-Sep-18 08:42 PM
Arrived: 29-Sep-18 09:46 PM
Distance/Time
Traveled:
293nm/1:03
Distance/Time
To Go:
Arrived

Flight Plot

Page will automatically refresh every two minutes.

Flight plan parsing failed; only flown route is shown


Map Options




Map Legend


Flown Route
Filed Route
Departure Airport
Arrival Airport
Navaid (VOR, NDB)
Fix

Horizontal Profiles

Position Reports

Time Latitude Longitude Heading Altitude Ground
Speed
29-Sep-18 20:17 37.621105 -122.390715 118 30ft 0kts
29-Sep-18 20:18 37.621105 -122.390715 118 30ft 0kts
29-Sep-18 20:19 37.621105 -122.390715 118 30ft 0kts
29-Sep-18 20:20 37.621105 -122.390715 118 30ft 0kts
29-Sep-18 20:21 37.621105 -122.390715 118 30ft 0kts
29-Sep-18 20:22 37.621105 -122.390715 118 30ft 0kts
29-Sep-18 20:23 37.621105 -122.390715 118 30ft 0kts
29-Sep-18 20:24 37.621106 -122.390715 118 30ft 0kts
29-Sep-18 20:25 37.621106 -122.390715 118 30ft 0kts
29-Sep-18 20:26 37.621208 -122.390960 117 31ft 2kts
29-Sep-18 20:27 37.621368 -122.391588 60 31ft 2kts
29-Sep-18 20:28 37.621190 -122.391753 26 30ft 4kts
29-Sep-18 20:29 37.621805 -122.391351 27 30ft 0kts
29-Sep-18 20:30 37.621806 -122.391350 27 30ft 0kts
29-Sep-18 20:31 37.621806 -122.391350 27 30ft 0kts
29-Sep-18 20:32 37.621806 -122.391350 27 30ft 0kts
29-Sep-18 20:33 37.622415 -122.390370 72 29ft 8kts
29-Sep-18 20:34 37.622034 -122.387669 117 30ft 8kts
29-Sep-18 20:35 37.620598 -122.384254 117 30ft 13kts
29-Sep-18 20:36 37.618685 -122.380056 139 30ft 14kts
29-Sep-18 20:37 37.615095 -122.380654 208 30ft 13kts
29-Sep-18 20:38 37.611930 -122.382738 207 31ft 12kts
29-Sep-18 20:39 37.609202 -122.384754 187 30ft 9kts
29-Sep-18 20:40 37.608465 -122.383847 118 30ft 0kts
29-Sep-18 20:41 37.608465 -122.383847 118 30ft 0kts
29-Sep-18 20:42 37.608343 -122.383559 118 30ft 5kts
29-Sep-18 20:43 37.609293 -122.381995 27 29ft 0kts
29-Sep-18 20:44 37.617347 -122.376672 27 24ft 124kts
29-Sep-18 20:45 37.660534 -122.354390 357 1740ft 186kts
29-Sep-18 20:46 37.689056 -122.392525 242 3517ft 185kts
29-Sep-18 20:47 37.641528 -122.419483 195 5342ft 228kts
29-Sep-18 20:48 37.576182 -122.428560 194 7700ft 262kts
29-Sep-18 20:49 37.507867 -122.456048 200 10006ft 276kts
29-Sep-18 20:50 37.443716 -122.415826 136 10025ft 291kts
29-Sep-18 20:51 37.389774 -122.340642 137 11384ft 320kts
29-Sep-18 20:52 37.328903 -122.257370 137 14044ft 337kts
29-Sep-18 20:53 37.264945 -122.170478 139 16634ft 355kts
29-Sep-18 20:54 37.197363 -122.079112 139 18604ft 369kts
29-Sep-18 20:55 37.127136 -121.984475 140 20290ft 378kts
29-Sep-18 20:56 37.055199 -121.887865 140 21898ft 388kts
29-Sep-18 20:57 36.981067 -121.788636 140 23371ft 396kts
29-Sep-18 20:58 36.905803 -121.688122 142 24906ft 399kts
29-Sep-18 20:59 36.829792 -121.587043 142 26198ft 405kts
29-Sep-18 21:00 36.752168 -121.484111 142 27405ft 410kts
29-Sep-18 21:01 36.674123 -121.380991 143 28441ft 418kts
29-Sep-18 21:02 36.594398 -121.275938 144 29526ft 419kts
29-Sep-18 21:03 36.515612 -121.172414 144 30700ft 415kts
29-Sep-18 21:04 36.436575 -121.068945 145 31761ft 412kts
29-Sep-18 21:05 36.360933 -120.961834 142 32723ft 414kts
29-Sep-18 21:06 36.286225 -120.854247 142 33603ft 411kts
29-Sep-18 21:07 36.211871 -120.747697 142 34396ft 409kts
29-Sep-18 21:08 36.138126 -120.642365 143 35080ft 405kts
29-Sep-18 21:09 36.064248 -120.537273 143 35622ft 404kts
29-Sep-18 21:10 35.991974 -120.434766 143 36270ft 402kts
29-Sep-18 21:11 35.918672 -120.331159 144 36874ft 400kts
29-Sep-18 21:12 35.840324 -120.237632 160 37001ft 386kts
29-Sep-18 21:13 35.747931 -120.168307 160 36990ft 400kts
29-Sep-18 21:14 35.652865 -120.097044 160 36987ft 408kts
29-Sep-18 21:15 35.557117 -120.024939 160 36981ft 408kts
29-Sep-18 21:16 35.461838 -119.953280 160 36970ft 400kts
29-Sep-18 21:17 35.372331 -119.885949 160 35536ft 383kts
29-Sep-18 21:18 35.280861 -119.816936 155 33769ft 400kts
29-Sep-18 21:19 35.191404 -119.733987 151 31936ft 413kts
29-Sep-18 21:20 35.099935 -119.648548 151 30142ft 420kts
29-Sep-18 21:21 35.006835 -119.561850 150 28357ft 424kts
29-Sep-18 21:22 34.915273 -119.476796 150 26561ft 409kts
29-Sep-18 21:23 34.826705 -119.397059 151 24834ft 398kts
29-Sep-18 21:24 34.738875 -119.318495 151 23070ft 389kts
29-Sep-18 21:25 34.652450 -119.242861 151 21268ft 379kts
29-Sep-18 21:26 34.568555 -119.170392 151 19621ft 369kts
29-Sep-18 21:27 34.487958 -119.099326 150 18339ft 363kts
29-Sep-18 21:28 34.407794 -119.028887 150 17142ft 356kts
29-Sep-18 21:29 34.328685 -118.960090 149 15941ft 350kts
29-Sep-18 21:30 34.251566 -118.890149 149 14733ft 344kts
29-Sep-18 21:31 34.178766 -118.823140 148 13481ft 307kts
29-Sep-18 21:32 34.115959 -118.758117 144 12260ft 291kts
29-Sep-18 21:33 34.057725 -118.694657 144 11049ft 281kts
29-Sep-18 21:34 34.023156 -118.611521 101 9884ft 300kts
29-Sep-18 21:35 34.014498 -118.513458 101 8845ft 284kts
29-Sep-18 21:36 34.012915 -118.425393 81 7874ft 261kts
29-Sep-18 21:37 34.027786 -118.341819 87 6901ft 254kts
29-Sep-18 21:38 34.038878 -118.260837 82 5946ft 252kts
29-Sep-18 21:39 34.051239 -118.179624 84 5043ft 239kts
29-Sep-18 21:40 34.055981 -118.103876 121 4125ft 221kts
29-Sep-18 21:41 34.015141 -118.102298 220 3621ft 172kts
29-Sep-18 21:42 33.980106 -118.139900 221 3625ft 172kts
29-Sep-18 21:43 33.957840 -118.187916 259 3079ft 176kts
29-Sep-18 21:44 33.951972 -118.241240 262 2251ft 155kts
29-Sep-18 21:45 33.946808 -118.291531 262 1537ft 147kts
29-Sep-18 21:46 33.942154 -118.337286 261 854ft 137kts
29-Sep-18 21:47 33.937274 -118.383184 262 174ft 139kts
29-Sep-18 21:48 33.935556 -118.405226 286 123ft 16kts
29-Sep-18 21:49 33.935948 -118.407513 263 126ft 5kts
29-Sep-18 21:50 33.937512 -118.409062 6 126ft 10kts
29-Sep-18 21:51 33.938286 -118.404796 82 122ft 18kts
29-Sep-18 21:52 33.939498 -118.400539 353 117ft 11kts
29-Sep-18 21:53 33.941602 -118.400570 74 117ft 4kts
29-Sep-18 21:54 33.941649 -118.400255 81 116ft 0kts
29-Sep-18 21:55 33.941649 -118.400255 81 116ft 0kts
29-Sep-18 21:56 33.941649 -118.400255 81 116ft 0kts
29-Sep-18 21:57 33.941649 -118.400255 81 116ft 0kts

Navigation Log

Ident Type
Flight plan parsing failed, navigation log unavailable